Crooked River, Oregon
Current Conditions -  °F | °C
As of 10:56 PM on Saturday 22 Nov 2014 (Local Time) from KRDM Reporting Station
Clear Clear  
Wind Chill: 25°   Ceiling: Unl
Heat Index: 32°   Visibility: 10mi
Dew Point: 28°   Wind: 8mph
Humidity: 85%   Direction: 160°SSE
Pressure: 30.18"   Gusts: NA
Location:  44.3536°N, 121.195°W
Report Text: KRDM 230656Z AUTO 16007KT 10SM CLR 00/M02 A3018 RMK AO2 SLP234 T00001022
Loading
Personal Weather Stations






























Interactive Weather Map New forecast layout! Learn more

10-Day Weather Forecast

Advertisements
Track Severe Weather on mobile